Walsingham, United Kingdom
Current Conditions -  °F | °C
As of 3:50 AM on Friday 31 Oct 2014 (Local Time) from EGYM Reporting Station
Haze Haze  
Wind Chill: 57°   Ceiling: 4200
Heat Index: 57°   Visibility: 5mi
Dew Point: 54°   Wind: 7mph
Humidity: 88%   Direction: 170°S
Pressure: 30.03"   Gusts: NA
Location:  52.89°N, 0.87°E
Report Text: EGYM 310350Z AUTO 17006KT 8000 HZ BKN042/// BKN050/// 14/12 Q1017
Loading
Personal Weather Stations






























Interactive Weather Map
Tropical Storm Tracking
New forecast layout! Learn more

10-Day Weather Forecast

Advertisements
Track Severe Weather on mobile